Wasilla, Alaska
Current Conditions -  °F | °C
As of 6:16 AM on Friday 19 Dec 2014 (Local Time) from PAWS Reporting Station
Scattered Clouds Scattered Clouds  
Wind Chill: 26°   Ceiling: Unl
Heat Index: 32°   Visibility: 10mi
Dew Point:   Wind: 7mph
Humidity: 38%   Direction: 60°ENE
Pressure: 29.17"   Gusts: NA
Location:  61.58°N, 149.45°W
Report Text: PAWS 191516Z AUTO 06006KT 10SM SCT120 00/M13 A2917 RMK AO1
Loading
Personal Weather Stations






























Interactive Weather Map New forecast layout! Learn more

10-Day Weather Forecast

Advertisements
Track Severe Weather on mobile